createdAt,value
2023-01-18T00:00:29.848Z,7.33
2023-01-18T00:05:31.850Z,6.40
2023-01-18T00:10:33.614Z,5.87
2023-01-18T00:15:35.649Z,6.37
2023-01-18T00:20:42.138Z,7.67
2023-01-18T00:25:43.912Z,8.90
2023-01-18T00:30:50.405Z,13.67
2023-01-18T00:36:00.243Z,7.97
2023-01-18T00:41:02.252Z,12.20
2023-01-18T00:46:16.723Z,6.73
2023-01-18T00:51:22.611Z,6.00
2023-01-18T00:56:24.515Z,8.13
2023-01-18T01:01:28.476Z,8.47
2023-01-18T01:06:47.149Z,10.13
2023-01-18T01:12:10.836Z,14.07
2023-01-18T01:17:32.572Z,8.53
2023-01-18T01:22:55.748Z,10.37
2023-01-18T01:27:57.756Z,7.53
2023-01-18T01:33:01.853Z,9.97
2023-01-18T01:38:08.131Z,10.73
2023-01-18T01:43:13.508Z,10.40
2023-01-18T01:48:17.683Z,9.53
2023-01-18T01:53:19.416Z,9.23
2023-01-18T01:58:23.724Z,11.10
2023-01-18T02:03:30.204Z,10.77
2023-01-18T02:08:53.303Z,14.33
2023-01-18T02:14:20.847Z,10.43
2023-01-18T02:19:42.788Z,14.43
2023-01-18T02:25:11.396Z,12.73
2023-01-18T02:30:30.712Z,17.10
2023-01-18T02:35:51.645Z,12.20
2023-01-18T02:41:52.431Z,14.17
2023-01-18T02:46:54.142Z,11.90
2023-01-18T02:52:02.884Z,13.20
2023-01-18T02:57:12.646Z,13.33
2023-01-18T03:02:23.117Z,10.13
2023-01-18T03:07:32.275Z,15.17
2023-01-18T03:12:49.095Z,12.40
2023-01-18T03:18:11.213Z,12.73
2023-01-18T03:23:37.902Z,13.83
2023-01-18T03:29:03.624Z,15.43
2023-01-18T03:34:14.148Z,12.57
2023-01-18T03:39:25.066Z,25.73
2023-01-18T03:44:36.088Z,12.17
2023-01-18T03:49:45.211Z,15.37
2023-01-18T03:55:26.677Z,20.27
2023-01-18T04:00:31.396Z,15.80
2023-01-18T04:05:35.660Z,17.90
2023-01-18T04:10:40.543Z,13.77
2023-01-18T04:15:51.723Z,20.10
2023-01-18T04:20:56.535Z,12.97
2023-01-18T04:26:00.632Z,16.27
2023-01-18T04:31:06.022Z,14.50
2023-01-18T04:36:08.554Z,15.57
2023-01-18T04:41:10.231Z,17.70
2023-01-18T04:46:11.971Z,16.07
2023-01-18T04:51:15.994Z,18.40
2023-01-18T04:56:17.912Z,13.47
2023-01-18T05:01:20.309Z,18.17
2023-01-18T05:06:24.626Z,16.43
2023-01-18T05:11:28.579Z,17.13
2023-01-18T05:16:35.397Z,17.87
2023-01-18T05:21:41.916Z,15.23
2023-01-18T05:26:45.946Z,17.70
2023-01-18T05:31:52.408Z,15.80
2023-01-18T05:36:54.108Z,21.40
2023-01-18T05:42:00.181Z,16.77
2023-01-18T05:47:02.119Z,18.33
2023-01-18T05:52:05.979Z,16.97
2023-01-18T05:57:13.025Z,17.30
2023-01-18T06:02:18.276Z,17.40
2023-01-18T06:07:20.007Z,20.57
2023-01-18T06:12:21.846Z,17.10
2023-01-18T06:17:23.552Z,19.23
2023-01-18T06:22:29.589Z,17.93
2023-01-18T06:27:37.648Z,19.90
2023-01-18T06:32:42.832Z,19.50
2023-01-18T06:37:45.197Z,16.47
2023-01-18T06:42:48.642Z,18.93
2023-01-18T06:47:54.925Z,18.27
2023-01-18T06:53:01.299Z,21.20
2023-01-18T06:58:07.640Z,18.80
2023-01-18T07:03:11.818Z,20.00
2023-01-18T07:08:13.642Z,21.63
2023-01-18T07:13:18.088Z,22.20
2023-01-18T07:18:19.831Z,17.20
2023-01-18T07:23:23.681Z,19.53
2023-01-18T07:28:27.949Z,21.77
2023-01-18T07:33:34.873Z,20.50
2023-01-18T07:38:38.013Z,18.87
2023-01-18T07:43:40.435Z,19.25
2023-01-18T07:48:44.796Z,18.70
2023-01-18T07:53:48.835Z,18.07
2023-01-18T07:58:55.623Z,20.00
2023-01-18T08:03:57.661Z,17.83
2023-01-18T08:08:59.683Z,19.23
2023-01-18T08:14:01.592Z,28.73
2023-01-18T08:19:07.567Z,23.73
2023-01-18T08:24:14.085Z,20.10
2023-01-18T08:29:15.863Z,20.73
2023-01-18T08:34:22.701Z,20.50
2023-01-18T08:39:24.446Z,20.30
2023-01-18T08:44:31.373Z,18.30
2023-01-18T08:49:37.682Z,19.57
2023-01-18T08:54:44.246Z,23.77
2023-01-18T08:59:48.992Z,15.30
2023-01-18T09:04:53.550Z,9.93
2023-01-18T09:10:01.669Z,13.67
2023-01-18T09:15:06.591Z,14.40
2023-01-18T09:20:12.134Z,18.43
2023-01-18T09:25:18.484Z,15.70
2023-01-18T09:30:20.237Z,14.60
2023-01-18T09:35:22.007Z,22.97
2023-01-18T09:40:31.556Z,20.87
2023-01-18T09:45:34.382Z,15.57
2023-01-18T09:50:42.858Z,19.27
2023-01-18T09:55:49.398Z,13.77
2023-01-18T10:00:56.075Z,14.50
2023-01-18T10:06:08.895Z,13.77
2023-01-18T10:11:48.192Z,13.77
2023-01-18T10:17:02.897Z,11.97
2023-01-18T10:22:19.715Z,15.63
2023-01-18T10:27:31.967Z,11.67
2023-01-18T10:32:39.730Z,13.27
2023-01-18T10:37:46.634Z,9.57
2023-01-18T10:42:57.566Z,13.27
2023-01-18T10:48:14.049Z,15.73
2023-01-18T10:53:34.011Z,14.13
2023-01-18T10:58:59.512Z,11.30
2023-01-18T11:04:07.773Z,13.30
2023-01-18T11:09:41.777Z,12.47
2023-01-18T11:14:45.830Z,8.10
2023-01-18T11:20:06.056Z,8.87
2023-01-18T11:25:17.275Z,8.60
2023-01-18T11:30:27.229Z,11.83
2023-01-18T11:35:33.123Z,8.93
2023-01-18T11:40:39.118Z,12.30
2023-01-18T11:45:59.859Z,12.17
2023-01-18T11:51:40.268Z,10.67
2023-01-18T11:56:47.068Z,8.90
2023-01-18T12:02:09.542Z,11.07
2023-01-18T12:07:48.604Z,12.17
2023-01-18T12:13:16.807Z,13.77
2023-01-18T12:18:54.046Z,8.23
2023-01-18T12:23:58.796Z,8.87
2023-01-18T12:29:16.898Z,7.80
2023-01-18T12:34:37.888Z,8.67
2023-01-18T12:40:17.424Z,8.30
2023-01-18T12:45:32.863Z,9.40
2023-01-18T12:50:38.863Z,8.07
2023-01-18T12:55:44.721Z,7.83
2023-01-18T13:00:53.755Z,9.83
2023-01-18T13:05:58.608Z,10.47
2023-01-18T13:11:21.939Z,10.63
2023-01-18T13:16:42.495Z,8.53
2023-01-18T13:22:05.606Z,8.07
2023-01-18T13:27:18.577Z,9.73
2023-01-18T13:32:31.356Z,6.20
2023-01-18T13:37:49.400Z,6.93
2023-01-18T13:42:54.011Z,9.90
2023-01-18T13:48:05.220Z,6.93
2023-01-18T13:53:15.475Z,7.57
2023-01-18T13:58:25.607Z,9.97
2023-01-18T14:03:39.282Z,9.20
2023-01-18T14:08:50.322Z,8.43
2023-01-18T14:13:55.060Z,8.53
2023-01-18T14:19:01.005Z,8.33
2023-01-18T14:24:24.345Z,8.27
2023-01-18T14:29:49.808Z,7.90
2023-01-18T14:35:04.980Z,8.73
2023-01-18T14:40:15.077Z,7.17
2023-01-18T14:45:27.456Z,6.80
2023-01-18T14:50:33.422Z,7.50
2023-01-18T14:55:40.453Z,10.00
2023-01-18T15:00:54.686Z,10.57
2023-01-18T15:06:12.676Z,7.70
2023-01-18T15:11:17.600Z,7.37
2023-01-18T15:16:22.603Z,9.47
2023-01-18T15:21:29.009Z,7.57
2023-01-18T15:26:43.291Z,10.30
2023-01-18T15:32:11.079Z,8.33
2023-01-18T15:37:33.716Z,9.40
2023-01-18T15:42:47.502Z,10.80
2023-01-18T15:47:56.242Z,14.87
2023-01-18T15:53:06.729Z,13.90
2023-01-18T15:58:34.285Z,21.57
2023-01-18T16:03:39.140Z,14.10
2023-01-18T16:09:14.192Z,16.23
2023-01-18T16:14:28.258Z,13.07
2023-01-18T16:19:36.019Z,14.93
2023-01-18T16:24:53.501Z,14.53
2023-01-18T16:30:14.682Z,11.13
2023-01-18T16:35:23.779Z,14.97
2023-01-18T16:40:26.297Z,13.70
2023-01-18T16:45:31.946Z,10.93
2023-01-18T16:50:34.137Z,12.43
2023-01-18T16:55:39.216Z,13.50
2023-01-18T17:01:01.074Z,10.73
2023-01-18T17:06:04.225Z,11.70
2023-01-18T17:11:07.504Z,14.17
2023-01-18T17:16:15.897Z,10.80
2023-01-18T17:21:19.791Z,14.43
2023-01-18T17:26:23.928Z,15.48
2023-01-18T17:31:26.186Z,12.77
2023-01-18T17:36:28.076Z,11.10
2023-01-18T17:41:30.051Z,11.33
2023-01-18T17:46:34.071Z,13.80
2023-01-18T17:51:38.571Z,8.33
2023-01-18T17:56:42.573Z,12.90
2023-01-18T18:01:46.733Z,12.23
2023-01-18T18:06:54.448Z,12.00
2023-01-18T18:11:57.552Z,11.60
2023-01-18T18:16:59.314Z,12.00
2023-01-18T18:22:04.063Z,12.30
2023-01-18T18:27:14.870Z,10.30
2023-01-18T18:32:19.008Z,8.13
2023-01-18T18:37:21.029Z,10.00
2023-01-18T18:42:26.143Z,12.50
2023-01-18T18:47:27.823Z,14.70
2023-01-18T18:52:29.525Z,14.60
2023-01-18T18:57:31.419Z,13.77
2023-01-18T19:02:37.006Z,14.93
2023-01-18T19:07:42.537Z,13.83
2023-01-18T19:12:46.582Z,13.93
2023-01-18T19:17:51.375Z,12.97
2023-01-18T19:22:58.794Z,8.93
2023-01-18T19:28:04.063Z,12.10
2023-01-18T19:33:07.214Z,10.63
2023-01-18T19:38:10.671Z,13.60
2023-01-18T19:43:12.405Z,13.37
2023-01-18T19:48:15.095Z,11.57
2023-01-18T19:53:17.906Z,16.33
2023-01-18T19:58:22.695Z,13.77
2023-01-18T20:03:24.475Z,12.17
2023-01-18T20:08:26.242Z,13.90
2023-01-18T20:13:30.161Z,15.70
2023-01-18T20:18:38.461Z,14.27
2023-01-18T20:23:45.668Z,15.40
2023-01-18T20:28:50.956Z,23.20
2023-01-18T20:33:55.117Z,13.97
2023-01-18T20:38:57.299Z,19.20
2023-01-18T20:43:59.954Z,17.67
2023-01-18T20:49:07.473Z,18.97
2023-01-18T20:54:13.735Z,15.23
2023-01-18T20:59:17.650Z,17.83
2023-01-18T21:04:20.673Z,16.73
2023-01-18T21:09:23.598Z,20.48
2023-01-18T21:14:28.798Z,15.37
2023-01-18T21:19:33.099Z,14.73
2023-01-18T21:24:39.704Z,16.93
2023-01-18T21:29:44.616Z,15.70
2023-01-18T21:34:49.404Z,23.00
2023-01-18T21:40:00.656Z,15.57
2023-01-18T21:45:27.975Z,19.07
2023-01-18T21:50:48.360Z,11.10
2023-01-18T21:55:52.084Z,11.27
2023-01-18T22:01:00.355Z,17.30
2023-01-18T22:06:12.141Z,13.40
2023-01-18T22:11:18.910Z,13.23
2023-01-18T22:16:27.912Z,12.87
2023-01-18T22:21:32.618Z,16.53
2023-01-18T22:26:40.173Z,16.67
2023-01-18T22:31:46.975Z,9.27
2023-01-18T22:36:49.222Z,8.60
2023-01-18T22:41:53.224Z,11.07
2023-01-18T22:46:59.353Z,15.43
2023-01-18T22:52:05.239Z,11.43
2023-01-18T22:57:06.950Z,10.73
2023-01-18T23:02:13.842Z,12.17
2023-01-18T23:07:18.276Z,13.13
2023-01-18T23:12:22.305Z,11.80
2023-01-18T23:17:38.862Z,10.70
2023-01-18T23:22:40.688Z,8.23
2023-01-18T23:27:48.209Z,13.13
2023-01-18T23:32:54.559Z,16.47
2023-01-18T23:38:00.979Z,14.03
2023-01-18T23:43:21.588Z,13.60
2023-01-18T23:48:43.435Z,14.07
2023-01-18T23:54:03.693Z,12.20
2023-01-18T23:59:05.467Z,16.97
